Startpagina
METAR-TAF:

METAR-TAF

Vliegvelden :

Militair vliegvled

Ämari, Estland

breedte: 59-15-44N, lengte: 24-13-07E, hoogte: 20 m

Actueel weer

Dit bericht is 31 minuten geleden gemaakt, om 11:50 UTC
Wind 8 kt uit het oostzuidoosten, variërend tussen het oosten en het zuidzuidoosten
Temperatuur 0°C
Vochtigheid 74%
Druk 1029 hPa
Zicht 10 km of meer
Geheel bewolkt op 1900 ft

METAR: EEEI 221150Z 11008KT 080V160 9999 OVC019 M00/M04 Q1029 NOSIG

Tijdstip: 14:21 (12:21 UTC)

Verwachting

Dit bericht is 51 minuten geleden gemaakt, om 11:30 UTC
Verwachting geldig van 22 om 12 UTC tot 23 om 12 UTC
Wind 10 kt uit het zuidoosten
Zicht 10 km of meer
Gebroken wolken op 2500 ft

TAF: EEEI 221130Z 2212/2312 13010KT 9999 BKN025

Waarnemingen en weersverwachtingen van meer dan 4000 vliegvelden (METAR en TAF).

De beschikbare stations zijn de gele en rode punten op de kaart.

Ga met uw muis naar het station om de naam te zien.

Klik dan om waarnemingen en weersverwachtingen te zien.

kaart wijzigen: klik op de groene knoppen met een zwart kruis om in te zoomen, op de groene knop met een streepje om uit te zoomen of op de groene pijlen voor aangrenzende kaarten.


METAR-TAF: